createdAt,value
2022-12-24T02:11:19.611Z,28.50
2022-12-24T02:13:58.806Z,28.60
2022-12-24T02:16:45.360Z,30.00
2022-12-24T02:19:37.178Z,29.00
2022-12-24T02:22:15.835Z,28.90
2022-12-24T02:25:06.928Z,29.90
2022-12-24T02:27:55.182Z,29.00
2022-12-24T02:30:32.743Z,28.00
2022-12-24T02:33:13.720Z,28.70
2022-12-24T02:35:55.766Z,27.70
2022-12-24T02:38:27.503Z,28.20
2022-12-24T02:40:58.061Z,27.50
2022-12-24T02:43:28.837Z,27.50
2022-12-24T02:45:59.719Z,28.40
2022-12-24T02:48:26.653Z,27.30
2022-12-24T02:50:57.790Z,28.00
2022-12-24T02:53:24.586Z,27.50
2022-12-24T02:56:18.776Z,28.30
2022-12-24T02:59:14.413Z,26.90
2022-12-24T03:01:52.488Z,27.30
2022-12-24T03:04:39.706Z,27.70
2022-12-24T03:07:17.024Z,26.30
2022-12-24T03:09:50.963Z,26.50
2022-12-24T03:12:21.341Z,26.70
2022-12-24T03:14:47.992Z,27.10
2022-12-24T03:17:14.710Z,26.80
2022-12-24T03:19:41.457Z,27.10
2022-12-24T03:22:09.907Z,26.00
2022-12-24T03:24:36.750Z,26.00
2022-12-24T03:27:04.959Z,26.20
2022-12-24T03:29:31.889Z,26.70
2022-12-24T03:32:02.932Z,25.60
2022-12-24T03:34:29.941Z,24.80
2022-12-24T03:36:56.663Z,25.80
2022-12-24T03:39:23.638Z,25.30
2022-12-24T03:41:50.343Z,26.40
2022-12-24T03:44:17.092Z,26.10
2022-12-24T03:46:43.753Z,25.80
2022-12-24T03:49:10.379Z,26.00
2022-12-24T03:51:37.126Z,26.50
2022-12-24T03:54:03.884Z,26.30
2022-12-24T03:56:30.540Z,26.40
2022-12-24T03:58:57.296Z,27.10
2022-12-24T04:01:24.052Z,26.00
2022-12-24T04:03:50.936Z,26.80
2022-12-24T04:06:17.980Z,27.60
2022-12-24T04:08:44.727Z,27.50
2022-12-24T04:11:12.592Z,27.30
2022-12-24T04:13:39.377Z,27.60
2022-12-24T04:16:07.979Z,27.30
2022-12-24T04:18:35.010Z,26.90
2022-12-24T04:21:01.667Z,26.00
2022-12-24T04:23:30.820Z,27.30
2022-12-24T04:26:00.019Z,27.20
2022-12-24T04:28:26.710Z,26.40
2022-12-24T04:30:58.455Z,25.70
2022-12-24T04:33:25.076Z,26.00
2022-12-24T04:35:51.745Z,26.70
2022-12-24T04:38:18.557Z,27.20
2022-12-24T04:40:45.256Z,26.60
2022-12-24T04:43:12.277Z,26.50
2022-12-24T04:45:39.002Z,25.90
2022-12-24T04:48:05.707Z,25.90
2022-12-24T04:50:32.393Z,25.30
2022-12-24T04:52:59.049Z,25.50
2022-12-24T04:55:25.768Z,24.50
2022-12-24T04:57:53.236Z,24.50
2022-12-24T05:00:20.376Z,24.50
2022-12-24T05:02:47.135Z,24.00
2022-12-24T05:05:14.013Z,24.40
2022-12-24T05:07:40.655Z,24.10
2022-12-24T05:10:07.955Z,23.80
2022-12-24T05:12:34.811Z,24.20
2022-12-24T05:15:01.524Z,24.50
2022-12-24T05:17:28.696Z,24.50
2022-12-24T05:19:55.432Z,25.30
2022-12-24T05:22:40.745Z,25.40
2022-12-24T05:25:27.783Z,25.40
2022-12-24T05:27:54.746Z,25.40
2022-12-24T05:30:21.467Z,24.60
2022-12-24T05:32:48.200Z,24.90
2022-12-24T05:35:15.070Z,24.90
2022-12-24T05:37:41.744Z,24.70
2022-12-24T05:40:09.165Z,25.30
2022-12-24T05:42:35.869Z,24.70
2022-12-24T05:45:02.665Z,25.80
2022-12-24T05:47:29.552Z,25.90
2022-12-24T05:49:56.222Z,25.10
2022-12-24T05:52:22.912Z,25.40
2022-12-24T05:54:49.662Z,25.40
2022-12-24T05:57:16.617Z,24.90
2022-12-24T05:59:43.327Z,25.60
2022-12-24T06:02:09.983Z,24.30
2022-12-24T06:04:36.863Z,25.20
2022-12-24T06:07:03.656Z,25.60
2022-12-24T06:09:30.354Z,25.10
2022-12-24T06:11:57.097Z,25.30
2022-12-24T06:14:23.864Z,25.50
2022-12-24T06:16:50.525Z,24.60
2022-12-24T06:19:17.207Z,24.30
2022-12-24T06:21:43.908Z,24.60
2022-12-24T06:24:10.607Z,25.50
2022-12-24T06:26:37.281Z,25.50
2022-12-24T06:29:04.015Z,24.70
2022-12-24T06:31:30.698Z,24.00
2022-12-24T06:33:57.485Z,24.10
2022-12-24T06:36:24.916Z,24.30
2022-12-24T06:38:51.862Z,23.90
2022-12-24T06:41:18.882Z,24.30
2022-12-24T06:43:46.814Z,23.70
2022-12-24T06:46:13.878Z,24.30
2022-12-24T06:48:40.779Z,23.90
2022-12-24T06:51:07.731Z,23.90
2022-12-24T06:53:34.427Z,24.40
2022-12-24T06:56:08.755Z,24.70
2022-12-24T06:58:35.615Z,24.10
2022-12-24T07:01:03.423Z,24.10
2022-12-24T07:03:30.322Z,24.50
2022-12-24T07:05:57.198Z,24.20
2022-12-24T07:08:24.563Z,23.80
2022-12-24T07:10:54.336Z,24.20
2022-12-24T07:13:21.526Z,23.80
2022-12-24T07:15:56.475Z,23.20
2022-12-24T07:18:23.209Z,23.60
2022-12-24T07:20:49.857Z,23.50
2022-12-24T07:23:16.501Z,24.30
2022-12-24T07:25:43.309Z,24.70
2022-12-24T07:28:10.016Z,24.10
2022-12-24T07:30:36.706Z,24.50
2022-12-24T07:33:03.526Z,23.50
2022-12-24T07:35:30.306Z,23.50
2022-12-24T07:37:56.966Z,23.40
2022-12-24T07:40:23.646Z,23.00
2022-12-24T07:42:50.297Z,23.20
2022-12-24T07:45:17.085Z,23.20
2022-12-24T07:47:43.813Z,22.90
2022-12-24T07:50:10.786Z,23.70
2022-12-24T07:52:37.523Z,23.20
2022-12-24T07:55:04.368Z,23.30
2022-12-24T07:57:31.043Z,23.40
2022-12-24T07:59:57.923Z,23.70
2022-12-24T08:02:24.771Z,24.20
2022-12-24T08:04:51.660Z,23.50
2022-12-24T08:07:18.484Z,23.10
2022-12-24T08:09:46.222Z,26.10
2022-12-24T12:09:23.583Z,29.70
2022-12-24T12:12:02.262Z,30.00
2022-12-24T12:14:54.139Z,30.40
2022-12-24T12:17:29.962Z,31.30
2022-12-24T12:20:18.536Z,31.10
2022-12-24T12:23:04.555Z,31.60
2022-12-24T12:25:38.133Z,31.40
2022-12-24T12:28:07.964Z,32.50
2022-12-24T12:30:34.639Z,32.20
2022-12-24T12:33:18.626Z,31.70
2022-12-24T12:38:14.242Z,30.20
2022-12-24T12:40:55.555Z,30.20
2022-12-24T12:43:30.061Z,30.70
2022-12-24T12:46:35.042Z,30.20
2022-12-24T12:49:26.886Z,30.60
2022-12-24T12:51:59.787Z,29.70
2022-12-24T12:54:54.551Z,29.30
2022-12-24T12:57:22.425Z,29.10
2022-12-24T12:59:57.015Z,29.60
2022-12-24T13:02:37.247Z,29.00
2022-12-24T13:05:28.379Z,30.10
2022-12-24T13:08:16.993Z,30.50
2022-12-24T13:11:12.651Z,31.10
2022-12-24T13:13:58.190Z,34.20
2022-12-24T13:16:34.168Z,52.60
2022-12-24T13:19:31.609Z,46.30
2022-12-24T13:22:03.228Z,32.80
2022-12-24T13:24:30.949Z,32.10
2022-12-24T13:27:17.876Z,40.70
2022-12-24T13:30:08.778Z,36.70
2022-12-24T13:32:46.009Z,32.90
2022-12-24T13:35:19.107Z,31.30
2022-12-24T13:37:46.119Z,30.40
2022-12-24T13:40:25.597Z,28.50
2022-12-24T13:43:04.838Z,28.90
2022-12-24T13:45:31.686Z,28.90
2022-12-24T13:48:25.522Z,29.10
2022-12-24T13:50:53.522Z,28.90
2022-12-24T13:53:33.526Z,33.50
2022-12-24T13:56:07.579Z,32.90
2022-12-24T13:58:38.762Z,33.60
2022-12-24T14:01:08.876Z,32.00
2022-12-24T14:03:57.051Z,31.50
2022-12-24T14:06:24.759Z,32.60
2022-12-24T14:08:53.257Z,34.10
2022-12-24T14:11:21.755Z,30.30
2022-12-24T14:13:48.492Z,42.20
2022-12-24T14:16:31.163Z,44.70
2022-12-24T14:18:59.505Z,38.50
2022-12-24T14:21:32.232Z,36.40
2022-12-24T14:24:16.011Z,35.20
2022-12-24T14:26:52.131Z,32.30
2022-12-24T14:29:27.011Z,31.20
2022-12-24T14:31:54.996Z,29.90
2022-12-24T14:34:21.746Z,30.30
2022-12-24T14:36:48.626Z,30.00
2022-12-24T14:39:35.781Z,30.70
2022-12-24T14:42:05.329Z,31.80
2022-12-24T14:44:40.900Z,33.30
2022-12-24T14:47:30.104Z,37.90
2022-12-24T14:50:04.955Z,38.60
2022-12-24T14:53:03.917Z,36.60
2022-12-24T14:55:35.623Z,36.30
2022-12-24T14:58:28.962Z,34.80
2022-12-24T15:01:03.568Z,35.30
2022-12-24T15:03:31.932Z,36.00
2022-12-24T15:06:06.420Z,36.70
2022-12-24T15:08:38.081Z,35.90
2022-12-24T15:11:07.477Z,39.10
2022-12-24T15:13:42.870Z,39.00
2022-12-24T15:16:14.692Z,35.60
2022-12-24T15:18:54.564Z,36.00
2022-12-24T15:21:31.258Z,37.30
2022-12-24T15:23:58.080Z,33.60
2022-12-24T15:26:32.618Z,30.90
2022-12-24T15:29:03.093Z,29.50
2022-12-24T15:31:30.371Z,29.70
2022-12-24T15:33:57.412Z,29.90
2022-12-24T15:36:34.826Z,28.60
2022-12-24T15:39:08.763Z,27.80
2022-12-24T15:42:04.069Z,28.10
2022-12-24T15:44:35.530Z,26.80
2022-12-24T15:47:03.102Z,28.00
2022-12-24T15:49:30.066Z,27.90
2022-12-24T15:52:08.397Z,27.10
2022-12-24T15:54:35.546Z,26.80
2022-12-24T15:57:13.282Z,27.50
2022-12-24T15:59:40.058Z,27.70
2022-12-24T16:02:31.741Z,27.50
2022-12-24T16:05:29.836Z,26.30
2022-12-24T16:08:15.039Z,27.20
2022-12-24T16:10:43.592Z,27.20
2022-12-24T16:13:19.242Z,25.90
2022-12-24T16:15:54.265Z,26.70
2022-12-24T16:18:25.900Z,27.00
2022-12-24T16:20:53.453Z,27.20
2022-12-24T16:23:30.307Z,29.20
2022-12-24T16:25:58.139Z,28.80
2022-12-24T16:28:26.340Z,31.20
2022-12-24T16:30:55.649Z,31.90
2022-12-24T16:33:23.847Z,30.20
2022-12-24T16:35:50.637Z,28.60
2022-12-24T16:38:17.326Z,27.00
2022-12-24T16:40:44.128Z,25.80
2022-12-24T16:43:29.326Z,26.70
2022-12-24T16:46:05.813Z,26.20
2022-12-24T16:48:36.241Z,26.10
2022-12-24T16:51:03.054Z,25.70
2022-12-24T16:53:29.803Z,26.00
2022-12-24T16:55:56.477Z,26.30
2022-12-24T16:58:23.179Z,26.30
2022-12-24T17:00:49.964Z,29.30
2022-12-24T17:03:16.958Z,29.60
2022-12-24T17:05:43.956Z,36.10
2022-12-24T17:08:10.732Z,37.20
2022-12-24T17:10:37.393Z,35.00
2022-12-24T17:13:04.180Z,32.80
2022-12-24T17:15:31.106Z,35.50
2022-12-24T17:17:57.868Z,39.40
2022-12-24T17:20:24.886Z,46.00
2022-12-24T17:22:52.094Z,49.10
2022-12-24T17:25:18.918Z,60.80
2022-12-24T17:27:45.595Z,63.50
2022-12-24T17:30:12.557Z,62.20
2022-12-24T17:32:39.694Z,54.10
2022-12-24T17:35:07.619Z,45.10
2022-12-24T17:37:34.400Z,36.90
2022-12-24T17:40:01.220Z,36.90
2022-12-24T17:42:28.056Z,38.30
2022-12-24T17:44:54.758Z,32.30
2022-12-24T17:47:21.424Z,32.00
2022-12-24T17:49:48.157Z,30.50
2022-12-24T17:52:15.082Z,30.40
2022-12-24T17:54:41.757Z,30.30
2022-12-24T17:57:08.616Z,29.60
2022-12-24T17:59:35.455Z,30.30
2022-12-24T18:02:02.222Z,29.50
2022-12-24T18:04:29.127Z,29.10
2022-12-24T18:07:02.071Z,28.80
2022-12-24T18:11:56.615Z,26.60
2022-12-24T18:14:23.365Z,27.40
2022-12-24T18:16:50.169Z,27.40
2022-12-24T18:19:17.066Z,27.60
2022-12-24T18:21:43.821Z,27.20
2022-12-24T18:24:11.375Z,27.90
2022-12-24T18:26:38.144Z,28.40
2022-12-24T18:29:04.942Z,27.00
2022-12-24T18:31:33.546Z,27.50
2022-12-24T18:34:01.226Z,26.40
2022-12-24T18:36:27.959Z,27.40
2022-12-24T18:38:54.667Z,27.60
2022-12-24T18:41:23.442Z,28.30
2022-12-24T18:43:50.162Z,27.50
2022-12-24T18:46:28.053Z,26.30
2022-12-24T18:48:55.170Z,26.50
2022-12-24T18:51:22.577Z,26.20
2022-12-24T18:53:50.116Z,26.70
2022-12-24T18:56:18.608Z,26.70
2022-12-24T20:04:39.758Z,28.30
2022-12-24T20:07:06.573Z,28.10
2022-12-24T20:09:34.079Z,28.20
2022-12-24T20:12:01.049Z,27.10
2022-12-24T20:14:28.693Z,27.40
2022-12-24T20:16:55.541Z,27.70
2022-12-24T20:19:22.496Z,28.40
2022-12-24T20:21:49.422Z,27.70
2022-12-24T20:24:16.245Z,27.30
2022-12-24T20:26:42.992Z,28.00
2022-12-24T20:29:10.195Z,29.30
2022-12-24T20:31:37.308Z,30.80
2022-12-24T20:34:05.296Z,27.80
2022-12-24T20:36:32.217Z,28.50
2022-12-24T20:38:59.404Z,27.50
2022-12-24T20:41:27.829Z,27.40
2022-12-24T20:43:54.596Z,27.80
2022-12-24T20:46:22.514Z,27.10
2022-12-24T20:48:49.684Z,28.80
2022-12-24T20:51:24.596Z,29.00
2022-12-24T20:53:56.691Z,29.00
2022-12-24T20:56:23.863Z,27.90
2022-12-24T20:58:51.250Z,28.70
2022-12-24T21:01:24.580Z,27.80
2022-12-24T21:06:20.153Z,28.40
2022-12-24T21:08:48.808Z,29.70
2022-12-24T21:11:34.824Z,32.50
2022-12-24T21:14:04.144Z,29.10
2022-12-24T21:16:31.796Z,29.40
2022-12-24T21:19:00.192Z,31.20
2022-12-24T21:21:26.962Z,32.40
2022-12-24T21:23:53.759Z,32.80
2022-12-24T21:26:20.459Z,31.80
2022-12-24T21:28:47.662Z,33.40
2022-12-24T21:31:15.678Z,33.60
2022-12-24T21:33:44.608Z,31.80
2022-12-24T21:36:12.051Z,32.30
2022-12-24T21:38:38.901Z,31.50
2022-12-24T21:41:11.322Z,33.80
2022-12-24T21:43:38.375Z,31.80
2022-12-24T21:46:13.781Z,31.70
2022-12-24T21:48:59.156Z,31.20
2022-12-24T21:51:26.590Z,31.60
2022-12-24T21:54:11.931Z,31.20
2022-12-24T21:56:57.484Z,32.40
2022-12-24T21:59:27.147Z,31.80
2022-12-24T22:01:54.983Z,32.00
2022-12-24T22:04:22.051Z,37.90
2022-12-24T22:07:07.523Z,40.40
2022-12-24T22:09:53.256Z,37.60
2022-12-24T22:12:20.118Z,34.80
2022-12-24T22:14:47.015Z,37.40
2022-12-24T22:17:15.284Z,37.30
2022-12-24T22:19:43.842Z,37.20
2022-12-24T22:22:10.683Z,37.00
2022-12-24T22:24:37.412Z,34.90
2022-12-24T22:27:04.115Z,35.40
2022-12-24T22:29:31.024Z,37.10
2022-12-24T22:31:57.884Z,39.50
2022-12-24T22:34:24.640Z,39.60
2022-12-24T22:36:51.411Z,40.80
2022-12-24T22:39:18.193Z,39.00
2022-12-24T22:41:44.925Z,38.00
2022-12-24T22:44:12.397Z,37.60
2022-12-24T22:46:39.182Z,37.50
2022-12-24T22:49:05.945Z,37.40
2022-12-24T22:51:32.686Z,37.10
2022-12-24T22:53:59.878Z,37.60
2022-12-24T22:56:26.623Z,35.00
2022-12-24T22:58:54.148Z,37.40
2022-12-24T23:01:32.218Z,36.10
2022-12-24T23:03:59.454Z,33.10
2022-12-24T23:06:26.653Z,33.50
2022-12-24T23:08:53.486Z,33.40
2022-12-24T23:11:20.549Z,33.40
2022-12-24T23:14:06.241Z,32.50
2022-12-24T23:16:33.147Z,32.60
2022-12-24T23:19:00.748Z,32.20
2022-12-24T23:21:27.959Z,35.50
2022-12-24T23:23:56.446Z,35.90
2022-12-24T23:26:23.420Z,36.50
2022-12-24T23:28:50.171Z,36.10
2022-12-24T23:31:17.183Z,39.30
2022-12-24T23:33:43.948Z,37.70
2022-12-24T23:36:10.709Z,37.40
2022-12-24T23:38:37.498Z,37.00
2022-12-24T23:41:05.374Z,37.70
2022-12-24T23:43:32.695Z,38.60
2022-12-24T23:45:59.532Z,37.90
2022-12-24T23:48:27.131Z,38.10
2022-12-24T23:51:04.129Z,39.20
2022-12-24T23:53:31.060Z,37.50
2022-12-24T23:55:57.764Z,37.10
2022-12-24T23:58:24.526Z,36.60
